createdAt,value
2022-08-05T04:06:35.116Z,94755.00
2022-08-05T04:11:47.737Z,94736.00
2022-08-05T04:16:55.036Z,94750.00
2022-08-05T04:22:05.736Z,94760.00
2022-08-05T04:27:15.895Z,94759.00
2022-08-05T04:32:31.183Z,94754.00
2022-08-05T04:38:01.502Z,94753.00
2022-08-05T04:42:57.340Z,94752.00
2022-08-05T04:48:07.340Z,94760.00
2022-08-05T04:53:19.241Z,94759.00
2022-08-05T04:58:22.725Z,94746.00
2022-08-05T05:03:24.683Z,94726.00
2022-08-05T05:08:30.452Z,94744.00
2022-08-05T05:13:42.968Z,94755.00
2022-08-05T05:19:08.897Z,94743.00
2022-08-05T05:24:08.813Z,94752.00
2022-08-05T05:29:14.898Z,94763.00
2022-08-05T05:34:21.195Z,94776.00
2022-08-05T05:39:34.578Z,94767.00
2022-08-05T05:44:44.383Z,94768.00
2022-08-05T05:49:56.994Z,94789.00
2022-08-05T05:55:13.586Z,94787.00
2022-08-05T06:00:21.594Z,94772.00
2022-08-05T06:05:33.739Z,94845.00
2022-08-05T06:10:37.383Z,94829.00
2022-08-05T06:16:28.839Z,94830.00
2022-08-05T06:21:16.593Z,94819.00
2022-08-05T06:26:24.038Z,94835.00
2022-08-05T06:31:30.441Z,94818.00
2022-08-05T06:36:56.692Z,94820.00
2022-08-05T06:41:58.960Z,94807.00
2022-08-05T06:47:02.165Z,94801.00
2022-08-05T06:52:04.818Z,94791.00
2022-08-05T06:57:56.707Z,94778.00
2022-08-05T07:02:29.439Z,94790.00
2022-08-05T07:07:35.413Z,94771.00
2022-08-05T07:13:03.461Z,94781.00
2022-08-05T07:18:09.288Z,94801.00
2022-08-05T07:23:13.022Z,94795.00
2022-08-05T07:28:28.642Z,94801.00
2022-08-05T07:33:36.855Z,94819.00
2022-08-05T07:38:42.846Z,94822.00
2022-08-05T07:43:45.981Z,94850.00
2022-08-05T07:49:01.397Z,94872.00
2022-08-05T07:54:08.401Z,94881.00
2022-08-05T07:59:12.134Z,94871.00
2022-08-05T08:04:16.573Z,94867.00
2022-08-05T08:09:25.224Z,94870.00
2022-08-05T08:14:31.083Z,94872.00
2022-08-05T08:20:22.835Z,94892.00
2022-08-05T08:24:55.505Z,94894.00
2022-08-05T08:30:30.111Z,94886.00
2022-08-05T08:35:28.282Z,94890.00
2022-08-05T08:40:38.134Z,94892.00
2022-08-05T08:45:41.518Z,94909.00
2022-08-05T08:51:04.052Z,94928.00
2022-08-05T08:56:07.191Z,94908.00
2022-08-05T09:01:11.037Z,94907.00
2022-08-05T09:06:20.415Z,94898.00
2022-08-05T09:11:52.007Z,94908.00
2022-08-05T09:16:48.940Z,94922.00
2022-08-05T09:22:31.218Z,94909.00
2022-08-05T09:28:05.055Z,94934.00
2022-08-05T09:33:02.906Z,94919.00
2022-08-05T09:38:16.648Z,94948.00
2022-08-05T09:43:41.005Z,94934.00
2022-08-05T09:49:03.703Z,94936.00
2022-08-05T09:54:09.514Z,94967.00
2022-08-05T09:59:16.861Z,94951.00
2022-08-05T10:04:19.403Z,94948.00
2022-08-05T10:09:45.246Z,94948.00
2022-08-05T10:14:47.481Z,94961.00
2022-08-05T10:20:04.135Z,94939.00
2022-08-05T10:25:14.404Z,94939.00
2022-08-05T10:31:20.867Z,94947.00
2022-08-05T10:35:40.564Z,94956.00
2022-08-05T10:40:59.186Z,94954.00
2022-08-05T10:46:08.297Z,94972.00
2022-08-05T10:51:21.686Z,94968.00
2022-08-05T10:56:31.160Z,94963.00
2022-08-05T11:01:54.172Z,94970.00
2022-08-05T11:06:57.962Z,94990.00
2022-08-05T11:12:00.007Z,94978.00
2022-08-05T11:17:57.969Z,94974.00
2022-08-05T11:22:54.079Z,94972.00
2022-08-05T11:28:16.914Z,94985.00
2022-08-05T11:33:46.697Z,94982.00
2022-08-05T11:38:52.426Z,94990.00
2022-08-05T11:44:13.003Z,94984.00
2022-08-05T11:49:35.146Z,94984.00
2022-08-05T11:54:38.264Z,94982.00
2022-08-05T11:59:50.305Z,94971.00
2022-08-05T12:04:59.212Z,94972.00
2022-08-05T12:10:09.124Z,94956.00
2022-08-05T12:15:38.375Z,94961.00
2022-08-05T12:20:42.270Z,94941.00
2022-08-05T12:25:53.633Z,94941.00
2022-08-05T12:31:02.405Z,94945.00
2022-08-05T12:36:08.797Z,94958.00
2022-08-05T12:41:14.586Z,94951.00
2022-08-05T12:46:28.949Z,94950.00
2022-08-05T12:52:13.826Z,94934.00
2022-08-05T12:56:58.368Z,94928.00
2022-08-05T13:02:07.963Z,94929.00
2022-08-05T13:07:55.948Z,94925.00
2022-08-05T13:12:51.071Z,94927.00
2022-08-05T13:17:59.617Z,94923.00
2022-08-05T13:23:07.175Z,94936.00
2022-08-05T13:28:10.569Z,94914.00
2022-08-05T13:34:20.218Z,94902.00
2022-08-05T13:38:36.338Z,94910.00
2022-08-05T13:43:45.651Z,94896.00
2022-08-05T13:49:01.011Z,94905.00
2022-08-05T13:54:03.317Z,94905.00
2022-08-05T13:59:20.277Z,94894.00
2022-08-05T14:04:41.924Z,94902.00
2022-08-05T14:09:46.364Z,94907.00
2022-08-05T14:14:48.908Z,94890.00
2022-08-05T14:19:56.814Z,94897.00
2022-08-05T14:25:06.494Z,94886.00
2022-08-05T14:30:21.648Z,94902.00
2022-08-05T14:35:23.750Z,94894.00
2022-08-05T14:40:39.629Z,94907.00
2022-08-05T14:45:45.908Z,94892.00
